Time;durP1;ratioP1;P1;durP2;ratioP2;P2;SDS_P1;SDS_P2;PMS_P1;PMS_P2;Temp;Humidity;BMP_temperature;BMP_pressure;BME280_temperature;BME280_humidity;BME280_pressure;Samples;Min_cycle;Max_cycle;Signal;HPM_P1;HPM_P2
2024/02/26 00:01:22;;;;;;;19.58;18.48;;;;;;;;;;5050034;28;20446;-55
2024/02/26 00:04:07;;;;;;;19.02;17.60;;;;;;;;;;5059226;28;20426;-52
2024/02/26 00:06:54;;;;;;;20.13;19.02;;;;;;;;;;5061978;28;20033;-54
2024/02/26 00:09:40;;;;;;;18.98;17.98;;;;;;;;;;5065036;28;20040;-53
2024/02/26 00:12:25;;;;;;;19.55;18.35;;;;;;;;;;5061125;28;20048;-51
2024/02/26 00:15:11;;;;;;;18.02;17.02;;;;;;;;;;5060169;28;20041;-52
2024/02/26 00:17:56;;;;;;;18.45;17.45;;;;;;;;;;5060825;28;20032;-54
2024/02/26 00:20:43;;;;;;;18.13;17.13;;;;;;;;;;5060691;28;20036;-53
2024/02/26 00:23:28;;;;;;;17.70;16.70;;;;;;;;;;5062341;28;20468;-55
2024/02/26 00:26:15;;;;;;;18.67;17.67;;;;;;;;;;5061370;28;20253;-53
2024/02/26 00:29:00;;;;;;;18.80;17.80;;;;;;;;;;5061333;28;20037;-52
2024/02/26 00:31:46;;;;;;;19.30;18.20;;;;;;;;;;5060915;28;20045;-52
2024/02/26 00:34:32;;;;;;;18.83;17.77;;;;;;;;;;5061442;28;20037;-54
2024/02/26 00:37:18;;;;;;;18.10;17.10;;;;;;;;;;5060633;28;20056;-54
2024/02/26 00:40:05;;;;;;;18.75;17.75;;;;;;;;;;5058767;28;20409;-54
2024/02/26 00:42:50;;;;;;;19.70;18.60;;;;;;;;;;5061799;28;20050;-51
2024/02/26 00:45:36;;;;;;;19.75;18.65;;;;;;;;;;5061481;28;20032;-53
2024/02/26 00:48:22;;;;;;;18.40;17.30;;;;;;;;;;5062040;28;20489;-55
2024/02/26 00:51:08;;;;;;;19.08;18.00;;;;;;;;;;5059537;28;20044;-52
2024/02/26 00:53:55;;;;;;;18.13;17.13;;;;;;;;;;5060755;28;20116;-50
2024/02/26 00:56:40;;;;;;;19.38;18.33;;;;;;;;;;5057488;28;20052;-52
2024/02/26 00:59:26;;;;;;;17.85;16.85;;;;;;;;;;5056564;28;20196;-51
2024/02/26 01:02:11;;;;;;;17.65;16.67;;;;;;;;;;5061313;28;20043;-49
2024/02/26 01:04:57;;;;;;;18.40;17.30;;;;;;;;;;5061900;28;20040;-49
2024/02/26 01:07:43;;;;;;;19.38;18.30;;;;;;;;;;5061410;28;20041;-50
2024/02/26 01:10:29;;;;;;;19.73;18.63;;;;;;;;;;5064041;28;20714;-51
2024/02/26 01:13:14;;;;;;;17.83;16.83;;;;;;;;;;5061745;28;20382;-51
2024/02/26 01:16:01;;;;;;;19.00;17.90;;;;;;;;;;5062320;28;20586;-52
2024/02/26 01:18:47;;;;;;;18.40;17.40;;;;;;;;;;5063161;28;20511;-52
2024/02/26 01:21:32;;;;;;;19.42;18.33;;;;;;;;;;5062354;28;20044;-53
2024/02/26 01:24:18;;;;;;;19.98;18.88;;;;;;;;;;5063442;28;20037;-53
2024/02/26 01:27:04;;;;;;;18.92;17.92;;;;;;;;;;5059063;28;20032;-52
2024/02/26 01:29:49;;;;;;;18.60;17.60;;;;;;;;;;5062499;28;20123;-55
2024/02/26 01:32:36;;;;;;;18.95;17.95;;;;;;;;;;5062245;28;20289;-51
2024/02/26 01:35:21;;;;;;;17.33;16.35;;;;;;;;;;5063795;28;20059;-51
2024/02/26 01:38:07;;;;;;;19.23;18.17;;;;;;;;;;5059790;28;20410;-53
2024/02/26 01:40:53;;;;;;;18.10;17.10;;;;;;;;;;5062253;28;20041;-55
2024/02/26 01:43:38;;;;;;;19.13;17.48;;;;;;;;;;5063571;28;20041;-53
2024/02/26 01:46:26;;;;;;;19.00;18.00;;;;;;;;;;5063426;28;20381;-56
2024/02/26 01:49:13;;;;;;;17.77;16.77;;;;;;;;;;5062985;28;20127;-54
2024/02/26 01:51:58;;;;;;;18.27;17.27;;;;;;;;;;5060363;28;20063;-51
2024/02/26 01:54:45;;;;;;;18.42;17.42;;;;;;;;;;5050536;28;20032;-55
2024/02/26 01:57:31;;;;;;;18.75;17.65;;;;;;;;;;5063781;28;20044;-54
2024/02/26 02:00:18;;;;;;;19.02;17.92;;;;;;;;;;5063623;28;20040;-52
2024/02/26 02:03:04;;;;;;;18.73;17.73;;;;;;;;;;5061213;28;20047;-50
2024/02/26 02:05:50;;;;;;;18.80;17.80;;;;;;;;;;5064836;28;20099;-49
2024/02/26 02:08:36;;;;;;;18.40;17.40;;;;;;;;;;5060614;28;20044;-53
2024/02/26 02:11:21;;;;;;;20.55;19.45;;;;;;;;;;5063051;28;20036;-54
2024/02/26 02:14:07;;;;;;;18.77;17.77;;;;;;;;;;5059771;28;20050;-54
2024/02/26 02:16:53;;;;;;;20.13;19.02;;;;;;;;;;5062637;28;20045;-53
2024/02/26 02:19:38;;;;;;;18.10;17.10;;;;;;;;;;5060064;28;20048;-54
2024/02/26 02:22:24;;;;;;;18.98;17.88;;;;;;;;;;5063222;28;20040;-54
2024/02/26 02:25:10;;;;;;;18.40;17.40;;;;;;;;;;5062295;28;20321;-55
2024/02/26 02:27:56;;;;;;;18.95;17.88;;;;;;;;;;5061648;28;20049;-54
2024/02/26 02:30:42;;;;;;;18.98;17.83;;;;;;;;;;5060750;28;20544;-53
2024/02/26 02:33:27;;;;;;;19.67;18.58;;;;;;;;;;5063797;28;20079;-52
2024/02/26 02:36:13;;;;;;;19.15;18.00;;;;;;;;;;5064776;28;20489;-52
2024/02/26 02:38:59;;;;;;;19.95;18.85;;;;;;;;;;5065586;28;20363;-50
2024/02/26 02:41:45;;;;;;;19.08;18.08;;;;;;;;;;5062031;28;20044;-52
2024/02/26 02:44:30;;;;;;;18.80;17.80;;;;;;;;;;5053331;28;20040;-51
2024/02/26 02:47:16;;;;;;;20.23;19.13;;;;;;;;;;5063278;28;20150;-49
2024/02/26 02:50:02;;;;;;;19.52;18.42;;;;;;;;;;5063336;28;20594;-54
2024/02/26 02:52:49;;;;;;;18.73;17.73;;;;;;;;;;5064307;28;20041;-52
2024/02/26 02:55:35;;;;;;;19.50;18.40;;;;;;;;;;5061493;28;20044;-52
2024/02/26 02:58:21;;;;;;;20.10;19.00;;;;;;;;;;5057499;28;21232;-52
2024/02/26 03:01:06;;;;;;;19.75;18.65;;;;;;;;;;5060017;28;20055;-50
2024/02/26 03:03:52;;;;;;;20.25;19.15;;;;;;;;;;5059647;28;20124;-52
2024/02/26 03:06:38;;;;;;;20.05;18.92;;;;;;;;;;5062642;28;20971;-50
2024/02/26 03:09:23;;;;;;;19.33;18.23;;;;;;;;;;5058513;28;20040;-50
2024/02/26 03:12:09;;;;;;;20.48;19.38;;;;;;;;;;5061285;28;20365;-53
2024/02/26 03:14:54;;;;;;;19.63;18.52;;;;;;;;;;5058186;28;20048;-50
2024/02/26 03:17:40;;;;;;;19.63;18.55;;;;;;;;;;5068443;28;20040;-49
2024/02/26 03:20:26;;;;;;;19.60;18.50;;;;;;;;;;5057880;28;20165;-54
2024/02/26 03:23:14;;;;;;;19.83;18.73;;;;;;;;;;5059179;28;20477;-53
2024/02/26 03:26:00;;;;;;;20.48;19.35;;;;;;;;;;5063020;28;20106;-54
2024/02/26 03:28:46;;;;;;;20.15;19.05;;;;;;;;;;5061168;28;20170;-53
2024/02/26 03:31:31;;;;;;;20.08;18.98;;;;;;;;;;5060798;28;20068;-50
2024/02/26 03:34:19;;;;;;;19.73;18.63;;;;;;;;;;5046822;28;20058;-55
2024/02/26 03:37:06;;;;;;;22.52;20.73;;;;;;;;;;5058059;28;20037;-52
2024/02/26 03:39:51;;;;;;;20.20;19.10;;;;;;;;;;5060544;28;20052;-54
2024/02/26 03:42:37;;;;;;;20.02;18.92;;;;;;;;;;5060090;28;20047;-53
2024/02/26 03:45:22;;;;;;;19.17;18.08;;;;;;;;;;5062665;28;20036;-54
2024/02/26 03:48:08;;;;;;;20.23;19.13;;;;;;;;;;5060320;28;20445;-53
2024/02/26 03:50:54;;;;;;;21.05;19.52;;;;;;;;;;5062036;28;20043;-54
2024/02/26 03:53:39;;;;;;;20.83;19.45;;;;;;;;;;5062224;28;20408;-55
2024/02/26 03:56:26;;;;;;;20.17;19.08;;;;;;;;;;5057193;28;20103;-51
2024/02/26 03:59:12;;;;;;;20.55;19.45;;;;;;;;;;5066204;28;20048;-55
2024/02/26 04:01:58;;;;;;;22.67;21.48;;;;;;;;;;5056341;28;20033;-51
2024/02/26 04:04:43;;;;;;;22.85;21.55;;;;;;;;;;5066476;28;20062;-52
2024/02/26 04:07:29;;;;;;;23.27;21.98;;;;;;;;;;5058996;28;20040;-54
2024/02/26 04:10:15;;;;;;;21.13;20.00;;;;;;;;;;5059880;28;20058;-56
2024/02/26 04:13:00;;;;;;;21.48;20.27;;;;;;;;;;5045524;28;20044;-55
2024/02/26 04:15:46;;;;;;;23.33;22.05;;;;;;;;;;5073717;28;20117;-54
2024/02/26 04:18:33;;;;;;;21.38;20.23;;;;;;;;;;5059178;28;20048;-55
2024/02/26 04:21:18;;;;;;;23.55;22.25;;;;;;;;;;5061393;28;20049;-54
2024/02/26 04:24:04;;;;;;;23.77;22.48;;;;;;;;;;5059457;28;20036;-56
2024/02/26 04:26:50;;;;;;;23.70;22.40;;;;;;;;;;5064899;28;20037;-55
2024/02/26 04:29:35;;;;;;;25.90;24.50;;;;;;;;;;5056691;28;20044;-55
2024/02/26 04:32:21;;;;;;;25.58;24.23;;;;;;;;;;5061860;28;20055;-52
2024/02/26 04:35:07;;;;;;;23.13;21.88;;;;;;;;;;5060083;28;20029;-65
2024/02/26 04:37:52;;;;;;;23.27;21.98;;;;;;;;;;5058417;28;20500;-55
2024/02/26 04:40:38;;;;;;;23.67;22.38;;;;;;;;;;5059569;28;20432;-55
2024/02/26 04:43:24;;;;;;;25.85;24.35;;;;;;;;;;5056623;28;20509;-65
2024/02/26 04:46:10;;;;;;;25.88;24.48;;;;;;;;;;5058317;28;20122;-65
2024/02/26 04:48:55;;;;;;;25.23;23.83;;;;;;;;;;5061029;28;20047;-65
2024/02/26 04:51:41;;;;;;;26.55;25.15;;;;;;;;;;5057370;28;20037;-65
2024/02/26 04:54:26;;;;;;;25.52;24.17;;;;;;;;;;5060177;28;20044;-65
2024/02/26 04:57:12;;;;;;;32.10;30.15;;;;;;;;;;5054854;28;20044;-65
2024/02/26 04:59:58;;;;;;;31.52;29.88;;;;;;;;;;5060859;28;20397;-65
2024/02/26 05:02:43;;;;;;;33.65;31.83;;;;;;;;;;5060934;28;20374;-65
2024/02/26 05:05:29;;;;;;;31.48;29.38;;;;;;;;;;5048390;28;20028;-65
2024/02/26 05:08:14;;;;;;;28.75;27.23;;;;;;;;;;5058296;28;20044;-55
2024/02/26 05:11:00;;;;;;;31.30;29.70;;;;;;;;;;5057942;28;20367;-53
2024/02/26 05:13:47;;;;;;;33.88;32.13;;;;;;;;;;5061346;28;20083;-54
2024/02/26 05:16:33;;;;;;;33.00;31.23;;;;;;;;;;5063451;28;20678;-65
2024/02/26 05:19:19;;;;;;;34.20;32.40;;;;;;;;;;5063164;28;20040;-65
2024/02/26 05:22:04;;;;;;;32.67;30.98;;;;;;;;;;5057838;28;20032;-55
2024/02/26 05:24:51;;;;;;;32.00;30.35;;;;;;;;;;5059481;28;20036;-53
2024/02/26 05:27:37;;;;;;;31.75;30.08;;;;;;;;;;5060723;28;20070;-51
2024/02/26 05:30:22;;;;;;;32.95;31.17;;;;;;;;;;5061677;28;20059;-66
2024/02/26 05:33:08;;;;;;;35.50;33.53;;;;;;;;;;5060057;28;20028;-66
2024/02/26 05:35:53;;;;;;;33.53;31.83;;;;;;;;;;5060687;28;20135;-66
2024/02/26 05:38:39;;;;;;;33.30;31.55;;;;;;;;;;5062258;28;20048;-51
2024/02/26 05:41:26;;;;;;;33.08;31.35;;;;;;;;;;5062452;28;20094;-52
2024/02/26 05:44:11;;;;;;;32.50;30.75;;;;;;;;;;5063131;28;20123;-55
2024/02/26 05:46:57;;;;;;;33.78;31.88;;;;;;;;;;5063443;28;20421;-53
2024/02/26 05:49:43;;;;;;;33.38;31.58;;;;;;;;;;5059761;28;20381;-53
2024/02/26 05:52:29;;;;;;;36.38;33.50;;;;;;;;;;5046612;28;20039;-51
2024/02/26 05:55:15;;;;;;;34.95;33.15;;;;;;;;;;5063525;28;20043;-53
2024/02/26 05:58:01;;;;;;;36.50;34.58;;;;;;;;;;5064260;28;20039;-67
2024/02/26 06:00:46;;;;;;;33.95;32.15;;;;;;;;;;5061590;28;20579;-53
2024/02/26 06:03:32;;;;;;;35.42;33.63;;;;;;;;;;5063621;28;20039;-53
2024/02/26 06:06:18;;;;;;;35.03;33.20;;;;;;;;;;5062006;28;20455;-53
2024/02/26 06:09:05;;;;;;;35.67;33.78;;;;;;;;;;5052833;28;20052;-66
2024/02/26 06:11:50;;;;;;;33.50;31.77;;;;;;;;;;5062299;28;20052;-50
2024/02/26 06:14:36;;;;;;;35.75;33.90;;;;;;;;;;5063125;28;20052;-68
2024/02/26 06:17:21;;;;;;;38.10;36.15;;;;;;;;;;5063118;28;20470;-55
2024/02/26 06:20:11;;;;;;;38.83;36.83;;;;;;;;;;5061771;28;20661;-66
2024/02/26 06:22:57;;;;;;;39.78;37.70;;;;;;;;;;5066041;28;20048;-67
2024/02/26 06:25:42;;;;;;;44.10;41.58;;;;;;;;;;5066505;28;20493;-66
2024/02/26 06:28:30;;;;;;;43.70;41.45;;;;;;;;;;5061123;28;20051;-54
2024/02/26 06:31:16;;;;;;;45.00;42.65;;;;;;;;;;5061047;28;20041;-55
2024/02/26 06:34:01;;;;;;;48.17;45.75;;;;;;;;;;5064315;28;20044;-52
2024/02/26 06:36:47;;;;;;;46.53;44.08;;;;;;;;;;5057294;28;20501;-52
2024/02/26 06:39:32;;;;;;;43.28;41.05;;;;;;;;;;5061776;28;20469;-66
2024/02/26 06:42:18;;;;;;;44.60;42.10;;;;;;;;;;5063007;28;20470;-48
2024/02/26 06:45:04;;;;;;;43.03;40.83;;;;;;;;;;5065493;28;20036;-66
2024/02/26 06:47:50;;;;;;;43.85;41.65;;;;;;;;;;5060523;28;20051;-53
2024/02/26 06:50:36;;;;;;;46.92;44.42;;;;;;;;;;5050144;28;20093;-49
2024/02/26 06:53:21;;;;;;;43.42;41.20;;;;;;;;;;5063566;28;20049;-52
2024/02/26 06:56:07;;;;;;;43.45;41.20;;;;;;;;;;5055232;28;20741;-67
2024/02/26 06:58:53;;;;;;;44.28;40.63;;;;;;;;;;5060503;28;20055;-49
2024/02/26 07:01:41;;;;;;;44.00;41.65;;;;;;;;;;5066031;28;20071;-67
2024/02/26 07:04:27;;;;;;;42.75;40.50;;;;;;;;;;5064056;28;20544;-66
2024/02/26 07:07:13;;;;;;;42.35;40.20;;;;;;;;;;5060039;28;20106;-49
2024/02/26 07:09:59;;;;;;;42.60;40.40;;;;;;;;;;5063333;28;20036;-53
2024/02/26 07:12:44;;;;;;;39.85;37.78;;;;;;;;;;5060569;28;20478;-49
2024/02/26 07:15:30;;;;;;;40.80;38.50;;;;;;;;;;5063149;28;20449;-66
2024/02/26 07:18:16;;;;;;;42.15;39.97;;;;;;;;;;5058087;28;20040;-53
2024/02/26 07:21:03;;;;;;;45.08;42.60;;;;;;;;;;5047686;28;20090;-54
2024/02/26 07:23:49;;;;;;;43.78;41.42;;;;;;;;;;5058417;28;20681;-54
2024/02/26 07:26:34;;;;;;;48.10;45.65;;;;;;;;;;5061621;28;20466;-52
2024/02/26 07:29:20;;;;;;;43.78;41.53;;;;;;;;;;5061135;28;20433;-54
2024/02/26 07:32:06;;;;;;;42.95;40.75;;;;;;;;;;5060964;28;20434;-51
2024/02/26 07:34:52;;;;;;;48.42;45.97;;;;;;;;;;5058160;28;20525;-52
2024/02/26 07:37:37;;;;;;;57.10;53.95;;;;;;;;;;5065326;28;20532;-66
2024/02/26 07:40:23;;;;;;;50.75;48.15;;;;;;;;;;5063327;28;20032;-66
2024/02/26 07:43:09;;;;;;;44.13;41.83;;;;;;;;;;5064752;28;20040;-66
2024/02/26 07:45:54;;;;;;;51.58;48.92;;;;;;;;;;5063290;28;20036;-66
2024/02/26 07:48:41;;;;;;;54.28;51.53;;;;;;;;;;5060541;28;20112;-66
2024/02/26 07:51:27;;;;;;;52.85;50.15;;;;;;;;;;5059814;28;20513;-66
2024/02/26 07:54:13;;;;;;;56.50;53.65;;;;;;;;;;5062175;28;20431;-66
2024/02/26 07:56:58;;;;;;;56.35;53.42;;;;;;;;;;5059509;28;20044;-66
2024/02/26 07:59:44;;;;;;;59.83;56.78;;;;;;;;;;5064596;28;20048;-66
2024/02/26 08:02:30;;;;;;;57.85;54.90;;;;;;;;;;5061221;28;20113;-66
2024/02/26 08:05:16;;;;;;;55.42;52.53;;;;;;;;;;5062951;28;20040;-66
2024/02/26 08:08:01;;;;;;;55.08;52.30;;;;;;;;;;5059945;28;20063;-52
2024/02/26 08:10:47;;;;;;;54.50;51.75;;;;;;;;;;5059288;28;20532;-66
2024/02/26 08:13:33;;;;;;;50.20;47.08;;;;;;;;;;5059042;28;20041;-66
2024/02/26 08:16:18;;;;;;;52.28;49.63;;;;;;;;;;5060427;28;20044;-66
2024/02/26 08:19:04;;;;;;;54.42;51.67;;;;;;;;;;5062736;28;20052;-66
2024/02/26 08:21:50;;;;;;;58.47;55.47;;;;;;;;;;5063480;28;20127;-66
2024/02/26 08:24:35;;;;;;;55.78;52.95;;;;;;;;;;5060209;28;20055;-66
2024/02/26 08:27:21;;;;;;;59.35;56.20;;;;;;;;;;5060336;28;20090;-66
2024/02/26 08:30:07;;;;;;;48.45;45.95;;;;;;;;;;5060257;28;20064;-67
2024/02/26 08:32:53;;;;;;;56.75;53.70;;;;;;;;;;5059638;28;20044;-68
2024/02/26 08:35:39;;;;;;;57.10;54.20;;;;;;;;;;5060629;28;20411;-67
2024/02/26 08:38:24;;;;;;;57.95;54.97;;;;;;;;;;5060168;28;20047;-67
2024/02/26 08:41:10;;;;;;;57.05;54.13;;;;;;;;;;5059657;28;20036;-67
2024/02/26 08:43:58;;;;;;;58.33;55.35;;;;;;;;;;5058007;28;20044;-67
2024/02/26 08:46:45;;;;;;;58.67;55.67;;;;;;;;;;5059918;28;20115;-68
2024/02/26 08:49:31;;;;;;;57.90;54.90;;;;;;;;;;5058862;28;20037;-68
2024/02/26 08:52:17;;;;;;;59.20;56.20;;;;;;;;;;5062818;28;20043;-67
2024/02/26 08:55:03;;;;;;;66.35;63.00;;;;;;;;;;5059631;28;20044;-67
2024/02/26 08:57:48;;;;;;;57.58;54.63;;;;;;;;;;5058683;28;20073;-67
2024/02/26 09:00:34;;;;;;;60.40;57.35;;;;;;;;;;5058406;28;20040;-55
2024/02/26 09:03:20;;;;;;;59.72;56.55;;;;;;;;;;5066613;28;20032;-54
2024/02/26 09:06:06;;;;;;;53.10;50.33;;;;;;;;;;5056095;28;20052;-67
2024/02/26 09:08:52;;;;;;;59.15;56.17;;;;;;;;;;5063839;28;20051;-67
2024/02/26 09:11:38;;;;;;;57.97;54.97;;;;;;;;;;5055069;28;20033;-67
2024/02/26 09:14:23;;;;;;;61.20;58.10;;;;;;;;;;5065143;28;20175;-67
2024/02/26 09:17:09;;;;;;;57.92;54.90;;;;;;;;;;5047334;28;20363;-67
2024/02/26 09:19:55;;;;;;;59.85;56.83;;;;;;;;;;5062495;28;20582;-54
2024/02/26 09:22:42;;;;;;;58.80;55.80;;;;;;;;;;5058497;28;20659;-54
2024/02/26 09:25:28;;;;;;;66.53;63.15;;;;;;;;;;5059945;28;20032;-67
2024/02/26 09:28:16;;;;;;;60.72;57.58;;;;;;;;;;5059290;28;20032;-55
2024/02/26 09:31:03;;;;;;;66.32;62.97;;;;;;;;;;5062170;28;20509;-53
2024/02/26 09:33:49;;;;;;;67.22;63.80;;;;;;;;;;5064325;28;20076;-55
2024/02/26 09:36:35;;;;;;;73.38;69.65;;;;;;;;;;5047062;28;20118;-55
2024/02/26 09:39:21;;;;;;;61.67;58.55;;;;;;;;;;5060446;28;20214;-53
2024/02/26 09:42:09;;;;;;;54.78;51.97;;;;;;;;;;5062760;28;20060;-56
2024/02/26 09:44:56;;;;;;;55.88;53.03;;;;;;;;;;5064017;28;20037;-54
2024/02/26 09:47:42;;;;;;;53.55;50.75;;;;;;;;;;5062446;28;20126;-68
2024/02/26 09:50:28;;;;;;;56.67;53.80;;;;;;;;;;5067643;28;20485;-67
2024/02/26 09:53:14;;;;;;;54.97;52.17;;;;;;;;;;5063075;28;20028;-67
2024/02/26 09:56:00;;;;;;;54.33;51.50;;;;;;;;;;5066412;28;20044;-67
2024/02/26 09:58:48;;;;;;;53.10;50.38;;;;;;;;;;5057465;28;20044;-68
2024/02/26 10:01:35;;;;;;;49.75;47.15;;;;;;;;;;5065450;28;20055;-67
2024/02/26 10:04:21;;;;;;;55.47;52.63;;;;;;;;;;5062543;28;20477;-68
2024/02/26 10:07:11;;;;;;;49.83;47.30;;;;;;;;;;5064358;28;20048;-68
2024/02/26 10:09:57;;;;;;;43.15;40.92;;;;;;;;;;5062695;28;20041;-68
2024/02/26 10:12:43;;;;;;;52.00;49.38;;;;;;;;;;5062494;28;20455;-67
2024/02/26 10:15:28;;;;;;;33.42;31.67;;;;;;;;;;5062919;28;20103;-67
2024/02/26 10:18:14;;;;;;;47.33;44.88;;;;;;;;;;5059050;28;20048;-68
2024/02/26 10:21:01;;;;;;;39.67;37.53;;;;;;;;;;5062361;28;20046;-67
2024/02/26 10:23:48;;;;;;;34.55;32.75;;;;;;;;;;5060403;28;20128;-67
2024/02/26 10:26:33;;;;;;;32.00;30.27;;;;;;;;;;5060591;28;20037;-67
2024/02/26 10:29:20;;;;;;;38.47;36.45;;;;;;;;;;5057954;28;20241;-67
2024/02/26 10:32:05;;;;;;;39.28;37.13;;;;;;;;;;5064820;28;20551;-66
2024/02/26 10:34:55;;;;;;;45.28;42.90;;;;;;;;;;5059468;28;20550;-67
2024/02/26 10:37:41;;;;;;;55.30;52.45;;;;;;;;;;5058742;28;20511;-67
2024/02/26 10:40:27;;;;;;;61.85;58.53;;;;;;;;;;5058152;28;20114;-67
2024/02/26 10:43:14;;;;;;;45.42;43.03;;;;;;;;;;5063286;28;20044;-67
2024/02/26 10:46:00;;;;;;;37.95;35.97;;;;;;;;;;5058099;28;20075;-67
2024/02/26 10:48:51;;;;;;;36.72;34.83;;;;;;;;;;5066325;28;20123;-67
2024/02/26 10:51:38;;;;;;;37.53;35.38;;;;;;;;;;5059828;28;20043;-67
2024/02/26 10:54:27;;;;;;;39.58;37.45;;;;;;;;;;5062330;28;20028;-67
2024/02/26 10:57:15;;;;;;;32.03;30.30;;;;;;;;;;5063627;28;20066;-66
2024/02/26 11:00:04;;;;;;;32.33;30.58;;;;;;;;;;5061140;28;20147;-67
2024/02/26 11:02:51;;;;;;;32.83;30.98;;;;;;;;;;5061539;28;20051;-69
2024/02/26 11:05:37;;;;;;;34.15;32.22;;;;;;;;;;5059904;28;20047;-67
2024/02/26 11:08:24;;;;;;;30.42;28.83;;;;;;;;;;5058492;28;20036;-67
2024/02/26 11:11:15;;;;;;;30.77;29.17;;;;;;;;;;5059816;28;20285;-67
2024/02/26 11:14:03;;;;;;;21.47;20.27;;;;;;;;;;5061927;28;20044;-67
2024/02/26 11:16:50;;;;;;;26.98;25.52;;;;;;;;;;5060386;28;20046;-67
2024/02/26 11:19:35;;;;;;;30.38;28.65;;;;;;;;;;5058003;28;20047;-67
2024/02/26 11:22:26;;;;;;;31.77;30.00;;;;;;;;;;5059501;28;20040;-67
2024/02/26 11:25:13;;;;;;;25.95;24.55;;;;;;;;;;5068660;28;20123;-67
2024/02/26 11:28:03;;;;;;;22.55;21.35;;;;;;;;;;5059014;28;20140;-67
2024/02/26 11:30:49;;;;;;;24.23;22.92;;;;;;;;;;5062385;28;20048;-66
2024/02/26 11:33:35;;;;;;;27.58;26.08;;;;;;;;;;5058175;28;20051;-67
2024/02/26 11:36:23;;;;;;;26.23;24.80;;;;;;;;;;5061300;28;20118;-67
2024/02/26 11:39:12;;;;;;;24.80;23.40;;;;;;;;;;5061640;28;20044;-67
2024/02/26 11:42:05;;;;;;;30.65;29.05;;;;;;;;;;5062023;28;20037;-67
2024/02/26 11:44:51;;;;;;;31.98;30.27;;;;;;;;;;5057292;28;20043;-53
2024/02/26 11:47:36;;;;;;;26.48;25.08;;;;;;;;;;5057749;28;20086;-56
2024/02/26 11:50:36;;;;;;;26.60;25.17;;;;;;;;;;5057814;28;20078;-67
2024/02/26 11:53:25;;;;;;;26.63;25.20;;;;;;;;;;5056795;28;20370;-66
2024/02/26 11:56:17;;;;;;;27.10;25.60;;;;;;;;;;5047561;28;20040;-68
2024/02/26 11:59:12;;;;;;;32.28;30.52;;;;;;;;;;5057702;28;20033;-67
2024/02/26 12:01:58;;;;;;;37.97;35.95;;;;;;;;;;5059144;28;20052;-67
2024/02/26 12:04:44;;;;;;;39.30;37.25;;;;;;;;;;5061404;28;20485;-68
2024/02/26 12:07:29;;;;;;;34.78;32.97;;;;;;;;;;5044716;28;20312;-69
2024/02/26 12:10:24;;;;;;;41.38;39.25;;;;;;;;;;5059824;28;20575;-53
2024/02/26 12:13:14;;;;;;;35.40;33.47;;;;;;;;;;5057820;28;20581;-51
2024/02/26 12:16:00;;;;;;;27.38;25.92;;;;;;;;;;5058207;28;20060;-53
2024/02/26 12:18:47;;;;;;;30.30;28.67;;;;;;;;;;5060152;28;20114;-54
2024/02/26 12:21:36;;;;;;;26.77;25.35;;;;;;;;;;5059826;28;20118;-54
2024/02/26 12:24:22;;;;;;;27.33;25.83;;;;;;;;;;5059375;28;20137;-51
2024/02/26 12:27:08;;;;;;;27.02;25.55;;;;;;;;;;5056941;28;20039;-55
2024/02/26 12:29:53;;;;;;;26.25;24.77;;;;;;;;;;5056431;28;20103;-55
2024/02/26 12:32:39;;;;;;;24.75;23.23;;;;;;;;;;5043487;28;20044;-55
2024/02/26 12:35:26;;;;;;;29.55;27.95;;;;;;;;;;5057400;28;20047;-54
2024/02/26 12:38:12;;;;;;;29.63;28.02;;;;;;;;;;5056499;28;20095;-56
2024/02/26 12:40:57;;;;;;;29.25;27.75;;;;;;;;;;5052094;28;20494;-56
2024/02/26 12:43:43;;;;;;;28.10;26.60;;;;;;;;;;5055536;28;20051;-54
2024/02/26 12:46:30;;;;;;;27.63;26.17;;;;;;;;;;5060757;28;20455;-56
2024/02/26 12:49:17;;;;;;;28.83;27.15;;;;;;;;;;5058252;28;20123;-56
2024/02/26 12:52:03;;;;;;;30.83;29.15;;;;;;;;;;5057195;28;20040;-56
2024/02/26 12:54:50;;;;;;;29.27;27.67;;;;;;;;;;5055797;28;20045;-54
2024/02/26 12:57:37;;;;;;;30.08;28.48;;;;;;;;;;5057399;28;20044;-55
2024/02/26 13:00:26;;;;;;;31.15;29.52;;;;;;;;;;5059207;28;20377;-54
2024/02/26 13:03:13;;;;;;;31.45;29.75;;;;;;;;;;5056778;28;20055;-57
2024/02/26 13:05:58;;;;;;;29.45;27.73;;;;;;;;;;5060295;28;20037;-53
2024/02/26 13:08:46;;;;;;;28.98;27.48;;;;;;;;;;5061505;28;20044;-55
2024/02/26 13:11:32;;;;;;;29.05;27.50;;;;;;;;;;5059639;28;20060;-56
2024/02/26 13:14:22;;;;;;;27.77;26.27;;;;;;;;;;5061778;28;20386;-56
2024/02/26 13:17:08;;;;;;;26.52;25.05;;;;;;;;;;5058918;28;20566;-55
2024/02/26 13:19:54;;;;;;;24.77;23.38;;;;;;;;;;5058517;28;20091;-54
2024/02/26 13:22:40;;;;;;;25.08;23.75;;;;;;;;;;5059353;28;20087;-66
2024/02/26 13:25:25;;;;;;;25.10;23.80;;;;;;;;;;5056843;28;20207;-67
2024/02/26 13:28:17;;;;;;;26.13;24.55;;;;;;;;;;5059847;28;20032;-67
2024/02/26 13:31:04;;;;;;;25.27;23.80;;;;;;;;;;5055667;28;20036;-67
2024/02/26 13:33:50;;;;;;;24.35;23.05;;;;;;;;;;5061316;28;20119;-67
2024/02/26 13:36:35;;;;;;;24.73;23.42;;;;;;;;;;5063935;28;20247;-68
2024/02/26 13:39:25;;;;;;;27.80;26.30;;;;;;;;;;5058839;28;20470;-67
2024/02/26 13:42:11;;;;;;;25.42;24.08;;;;;;;;;;5058692;28;20036;-55
2024/02/26 13:44:57;;;;;;;27.83;26.33;;;;;;;;;;5050229;28;20049;-54
2024/02/26 13:47:43;;;;;;;25.70;24.30;;;;;;;;;;5047643;28;20040;-67
2024/02/26 13:50:29;;;;;;;28.15;26.63;;;;;;;;;;5062587;28;20033;-67
2024/02/26 13:53:14;;;;;;;33.03;31.13;;;;;;;;;;5059678;28;20037;-56
2024/02/26 13:56:01;;;;;;;34.53;32.72;;;;;;;;;;5065615;28;20096;-54
2024/02/26 13:58:46;;;;;;;31.23;29.63;;;;;;;;;;5060619;28;20079;-56
2024/02/26 14:01:33;;;;;;;34.38;32.47;;;;;;;;;;5057950;28;20083;-57
2024/02/26 14:04:18;;;;;;;38.78;36.33;;;;;;;;;;5063724;28;20064;-55
2024/02/26 14:07:04;;;;;;;37.35;35.35;;;;;;;;;;5064394;28;20036;-55
2024/02/26 14:09:51;;;;;;;37.05;35.15;;;;;;;;;;5059801;28;20047;-55
2024/02/26 14:12:37;;;;;;;39.55;37.50;;;;;;;;;;5059005;28;20052;-67
2024/02/26 14:15:24;;;;;;;40.38;38.28;;;;;;;;;;5062109;28;20131;-55
2024/02/26 14:18:09;;;;;;;40.45;38.25;;;;;;;;;;5062041;28;20079;-67
2024/02/26 14:20:55;;;;;;;41.15;39.05;;;;;;;;;;5050237;28;20045;-67
2024/02/26 14:23:42;;;;;;;37.78;35.78;;;;;;;;;;5062086;28;20411;-68
2024/02/26 14:26:28;;;;;;;39.03;36.92;;;;;;;;;;5058928;28;20032;-67
2024/02/26 14:29:14;;;;;;;37.63;35.63;;;;;;;;;;5056382;28;20036;-52
2024/02/26 14:32:00;;;;;;;35.45;33.65;;;;;;;;;;5062243;28;20036;-65
2024/02/26 14:34:46;;;;;;;36.60;34.70;;;;;;;;;;5060297;28;20047;-67
2024/02/26 14:37:32;;;;;;;32.78;30.98;;;;;;;;;;5061265;28;20131;-55
2024/02/26 14:40:17;;;;;;;34.53;32.58;;;;;;;;;;5058927;28;20233;-54
2024/02/26 14:43:04;;;;;;;33.00;31.30;;;;;;;;;;5062740;28;20127;-66
2024/02/26 14:45:50;;;;;;;32.20;30.50;;;;;;;;;;5048990;28;20116;-65
2024/02/26 14:48:36;;;;;;;29.00;27.48;;;;;;;;;;5062697;28;20033;-66
2024/02/26 14:51:22;;;;;;;30.55;28.85;;;;;;;;;;5058771;28;20044;-66
2024/02/26 14:54:08;;;;;;;34.70;32.90;;;;;;;;;;5058185;28;20132;-66
2024/02/26 14:56:53;;;;;;;34.00;32.20;;;;;;;;;;5056990;28;20430;-55
2024/02/26 14:59:39;;;;;;;32.25;30.55;;;;;;;;;;5063792;28;20041;-53
2024/02/26 15:02:24;;;;;;;30.58;28.92;;;;;;;;;;5057726;28;20037;-67
2024/02/26 15:05:11;;;;;;;32.42;30.42;;;;;;;;;;5061795;28;20056;-66
2024/02/26 15:07:56;;;;;;;32.22;30.33;;;;;;;;;;5055744;28;20541;-55
2024/02/26 15:10:47;;;;;;;30.30;28.70;;;;;;;;;;5059222;28;21281;-66
2024/02/26 15:13:33;;;;;;;;;;;;;;;;;;5057696;28;20035;-66
2024/02/26 15:16:20;;;;;;;31.95;30.25;;;;;;;;;;5060880;28;19916;-66
2024/02/26 15:19:09;;;;;;;27.83;26.23;;;;;;;;;;5031908;28;20464;-66
2024/02/26 15:21:54;;;;;;;38.63;36.47;;;;;;;;;;5055009;28;20044;-55
2024/02/26 15:24:42;;;;;;;34.20;32.40;;;;;;;;;;5048701;28;20462;-59
2024/02/26 15:27:28;;;;;;;36.25;34.17;;;;;;;;;;5059119;28;20043;-53
2024/02/26 15:30:14;;;;;;;33.95;32.15;;;;;;;;;;5061708;28;20051;-53
2024/02/26 15:33:00;;;;;;;32.35;30.65;;;;;;;;;;5057510;28;20201;-66
2024/02/26 15:35:46;;;;;;;34.80;33.00;;;;;;;;;;5058476;28;20072;-66
2024/02/26 15:38:31;;;;;;;34.17;32.38;;;;;;;;;;5055588;28;20044;-55
2024/02/26 15:41:17;;;;;;;29.90;28.10;;;;;;;;;;5062085;28;20124;-66
2024/02/26 15:44:02;;;;;;;33.22;31.50;;;;;;;;;;5056633;28;20091;-55
2024/02/26 15:46:48;;;;;;;31.67;29.92;;;;;;;;;;5057811;28;20630;-54
2024/02/26 15:49:34;;;;;;;32.90;31.20;;;;;;;;;;5057967;28;20048;-66
2024/02/26 15:52:19;;;;;;;33.22;31.35;;;;;;;;;;5059575;28;20032;-66
2024/02/26 15:55:06;;;;;;;30.77;29.17;;;;;;;;;;5056843;28;20037;-54
2024/02/26 15:57:51;;;;;;;29.02;27.33;;;;;;;;;;5059727;28;20049;-56
2024/02/26 16:00:41;;;;;;;29.60;28.00;;;;;;;;;;5057881;28;20042;-66
2024/02/26 16:03:27;;;;;;;26.48;25.08;;;;;;;;;;5058367;28;20041;-66
2024/02/26 16:06:43;;;;;;;31.10;29.40;;;;;;;;;;5057323;28;20037;-66
2024/02/26 16:09:30;;;;;;;27.25;25.83;;;;;;;;;;5054682;28;20043;-66